sensor_id;sensor_type;location;lat;lon;timestamp;pressure;altitude;pressure_sealevel;temperature;humidity
56074;BME280;41950;55.840;37.442;2023-01-26T00:00:06;100300.31;;;-3.03;78.44
56074;BME280;41950;55.840;37.442;2023-01-26T00:02:32;100295.03;;;-3.07;78.75
56074;BME280;41950;55.840;37.442;2023-01-26T00:04:57;100302.94;;;-3.01;78.51
56074;BME280;41950;55.840;37.442;2023-01-26T00:07:23;100286.06;;;-3.01;78.72
56074;BME280;41950;55.840;37.442;2023-01-26T00:09:48;100302.38;;;-2.96;78.54
56074;BME280;41950;55.840;37.442;2023-01-26T00:12:14;100280.97;;;-3.19;78.57
56074;BME280;41950;55.840;37.442;2023-01-26T00:14:40;100288.94;;;-3.11;78.82
56074;BME280;41950;55.840;37.442;2023-01-26T00:17:19;100297.56;;;-3.07;78.61
56074;BME280;41950;55.840;37.442;2023-01-26T00:19:52;100290.41;;;-3.16;78.78
56074;BME280;41950;55.840;37.442;2023-01-26T00:22:18;100314.47;;;-3.08;79.13
56074;BME280;41950;55.840;37.442;2023-01-26T00:24:44;100308.31;;;-3.13;79.25
56074;BME280;41950;55.840;37.442;2023-01-26T00:27:09;100307.66;;;-3.09;79.00
56074;BME280;41950;55.840;37.442;2023-01-26T00:29:35;100310.41;;;-3.04;79.19
56074;BME280;41950;55.840;37.442;2023-01-26T00:32:01;100301.19;;;-3.02;79.01
56074;BME280;41950;55.840;37.442;2023-01-26T00:34:26;100289.09;;;-3.08;79.15
56074;BME280;41950;55.840;37.442;2023-01-26T00:36:52;100296.22;;;-3.01;79.10
56074;BME280;41950;55.840;37.442;2023-01-26T00:39:17;100307.38;;;-2.97;78.98
56074;BME280;41950;55.840;37.442;2023-01-26T00:41:43;100295.63;;;-2.95;79.05
56074;BME280;41950;55.840;37.442;2023-01-26T00:44:27;100279.78;;;-3.07;79.04
56074;BME280;41950;55.840;37.442;2023-01-26T00:46:53;100309.13;;;-2.96;79.10
56074;BME280;41950;55.840;37.442;2023-01-26T00:49:18;100313.88;;;-3.02;79.02
56074;BME280;41950;55.840;37.442;2023-01-26T00:51:44;100302.22;;;-2.99;79.24
56074;BME280;41950;55.840;37.442;2023-01-26T00:54:10;100292.22;;;-2.96;79.38
56074;BME280;41950;55.840;37.442;2023-01-26T00:56:35;100302.22;;;-2.99;79.27
56074;BME280;41950;55.840;37.442;2023-01-26T00:59:01;100265.94;;;-3.14;79.02
56074;BME280;41950;55.840;37.442;2023-01-26T01:01:26;100285.09;;;-3.03;79.07
56074;BME280;41950;55.840;37.442;2023-01-26T01:03:52;100299.97;;;-2.93;79.09
56074;BME280;41950;55.840;37.442;2023-01-26T01:06:18;100294.75;;;-2.96;79.11
56074;BME280;41950;55.840;37.442;2023-01-26T01:08:43;100287.56;;;-3.04;79.42
56074;BME280;41950;55.840;37.442;2023-01-26T01:11:10;100292.00;;;-3.00;79.57
56074;BME280;41950;55.840;37.442;2023-01-26T01:13:36;100284.22;;;-3.03;79.59
56074;BME280;41950;55.840;37.442;2023-01-26T01:16:07;100299.97;;;-2.93;79.51
56074;BME280;41950;55.840;37.442;2023-01-26T01:18:33;100300.25;;;-2.87;79.36
56074;BME280;41950;55.840;37.442;2023-01-26T01:20:59;100299.38;;;-2.87;79.18
56074;BME280;41950;55.840;37.442;2023-01-26T01:23:27;100308.59;;;-2.89;79.26
56074;BME280;41950;55.840;37.442;2023-01-26T01:25:57;100290.69;;;-2.92;79.18
56074;BME280;41950;55.840;37.442;2023-01-26T01:28:23;100290.59;;;-2.94;79.26
56074;BME280;41950;55.840;37.442;2023-01-26T01:30:49;100281.91;;;-2.99;79.17
56074;BME280;41950;55.840;37.442;2023-01-26T01:33:15;100288.13;;;-2.92;79.21
56074;BME280;41950;55.840;37.442;2023-01-26T01:35:40;100244.78;;;-3.15;79.21
56074;BME280;41950;55.840;37.442;2023-01-26T01:38:06;100249.25;;;-3.09;79.29
56074;BME280;41950;55.840;37.442;2023-01-26T01:40:32;100242.44;;;-3.10;79.09
56074;BME280;41950;55.840;37.442;2023-01-26T01:42:57;100281.44;;;-2.90;78.99
56074;BME280;41950;55.840;37.442;2023-01-26T01:47:57;100265.75;;;-3.01;79.23
56074;BME280;41950;55.840;37.442;2023-01-26T01:50:25;100267.97;;;-2.89;79.42
56074;BME280;41950;55.840;37.442;2023-01-26T01:52:53;100249.78;;;-2.98;79.37
56074;BME280;41950;55.840;37.442;2023-01-26T01:55:19;100271.78;;;-2.80;79.06
56074;BME280;41950;55.840;37.442;2023-01-26T01:57:54;100272.63;;;-2.79;78.90
56074;BME280;41950;55.840;37.442;2023-01-26T02:00:22;100270.97;;;-2.78;78.83
56074;BME280;41950;55.840;37.442;2023-01-26T02:03:01;100250.25;;;-2.88;78.94
56074;BME280;41950;55.840;37.442;2023-01-26T02:05:53;100272.72;;;-2.77;78.77
56074;BME280;41950;55.840;37.442;2023-01-26T02:08:23;100260.59;;;-2.83;79.04
56074;BME280;41950;55.840;37.442;2023-01-26T02:10:53;100249.25;;;-2.91;79.04
56074;BME280;41950;55.840;37.442;2023-01-26T02:13:21;100263.06;;;-2.85;79.02
56074;BME280;41950;55.840;37.442;2023-01-26T02:15:48;100264.69;;;-2.87;78.95
56074;BME280;41950;55.840;37.442;2023-01-26T02:18:15;100233.50;;;-3.02;79.28
56074;BME280;41950;55.840;37.442;2023-01-26T02:20:52;100232.78;;;-2.99;78.95
56074;BME280;41950;55.840;37.442;2023-01-26T02:23:31;100252.78;;;-2.88;79.09
56074;BME280;41950;55.840;37.442;2023-01-26T02:26:08;100239.75;;;-2.95;79.16
56074;BME280;41950;55.840;37.442;2023-01-26T02:28:35;100248.03;;;-2.99;79.22
56074;BME280;41950;55.840;37.442;2023-01-26T02:31:02;100248.72;;;-3.02;79.55
56074;BME280;41950;55.840;37.442;2023-01-26T02:33:30;100243.16;;;-2.95;79.65
56074;BME280;41950;55.840;37.442;2023-01-26T02:35:56;100239.81;;;-2.94;79.36
56074;BME280;41950;55.840;37.442;2023-01-26T02:38:26;100226.97;;;-2.97;79.25
56074;BME280;41950;55.840;37.442;2023-01-26T02:40:58;100209.72;;;-3.04;79.61
56074;BME280;41950;55.840;37.442;2023-01-26T02:43:25;100234.75;;;-2.94;79.46
56074;BME280;41950;55.840;37.442;2023-01-26T02:45:52;100238.16;;;-2.93;79.45
56074;BME280;41950;55.840;37.442;2023-01-26T02:48:18;100239.81;;;-2.94;79.31
56074;BME280;41950;55.840;37.442;2023-01-26T02:51:02;100236.47;;;-2.93;79.29
56074;BME280;41950;55.840;37.442;2023-01-26T02:53:29;100199.81;;;-3.17;79.21
56074;BME280;41950;55.840;37.442;2023-01-26T02:55:55;100226.91;;;-2.98;79.49
56074;BME280;41950;55.840;37.442;2023-01-26T02:58:21;100226.19;;;-2.96;79.54
56074;BME280;41950;55.840;37.442;2023-01-26T03:00:46;100226.25;;;-2.94;79.53
56074;BME280;41950;55.840;37.442;2023-01-26T03:03:18;100211.00;;;-2.94;79.38
56074;BME280;41950;55.840;37.442;2023-01-26T03:05:45;100215.88;;;-2.99;79.52
56074;BME280;41950;55.840;37.442;2023-01-26T03:08:10;100216.03;;;-2.96;79.76
56074;BME280;41950;55.840;37.442;2023-01-26T03:10:37;100211.75;;;-2.97;79.54
56074;BME280;41950;55.840;37.442;2023-01-26T03:13:03;100207.66;;;-2.93;79.72
56074;BME280;41950;55.840;37.442;2023-01-26T03:15:29;100188.28;;;-2.91;79.74
56074;BME280;41950;55.840;37.442;2023-01-26T03:18:12;100191.69;;;-2.91;79.76
56074;BME280;41950;55.840;37.442;2023-01-26T03:21:01;100178.66;;;-2.98;79.65
56074;BME280;41950;55.840;37.442;2023-01-26T03:23:46;100166.28;;;-3.10;79.68
56074;BME280;41950;55.840;37.442;2023-01-26T03:26:30;100183.50;;;-3.03;79.93
56074;BME280;41950;55.840;37.442;2023-01-26T03:29:14;100178.66;;;-2.98;79.73
56074;BME280;41950;55.840;37.442;2023-01-26T03:31:40;100218.09;;;-2.87;79.54
56074;BME280;41950;55.840;37.442;2023-01-26T03:34:05;100210.53;;;-2.86;79.60
56074;BME280;41950;55.840;37.442;2023-01-26T03:36:31;100216.56;;;-2.84;79.58
56074;BME280;41950;55.840;37.442;2023-01-26T03:38:57;100197.94;;;-3.02;79.42
56074;BME280;41950;55.840;37.442;2023-01-26T03:41:22;100210.16;;;-2.95;79.48
56074;BME280;41950;55.840;37.442;2023-01-26T03:44:06;100214.69;;;-2.88;79.48
56074;BME280;41950;55.840;37.442;2023-01-26T03:46:51;100189.47;;;-3.02;79.37
56074;BME280;41950;55.840;37.442;2023-01-26T03:49:35;100201.84;;;-2.91;79.49
56074;BME280;41950;55.840;37.442;2023-01-26T03:52:19;100205.78;;;-2.97;79.69
56074;BME280;41950;55.840;37.442;2023-01-26T03:55:03;100198.25;;;-2.96;79.54
56074;BME280;41950;55.840;37.442;2023-01-26T03:57:47;100211.75;;;-2.97;79.53
56074;BME280;41950;55.840;37.442;2023-01-26T04:00:13;100200.66;;;-2.99;79.77
56074;BME280;41950;55.840;37.442;2023-01-26T04:02:40;100195.78;;;-2.94;79.64
56074;BME280;41950;55.840;37.442;2023-01-26T04:05:24;100210.41;;;-2.89;79.58
56074;BME280;41950;55.840;37.442;2023-01-26T04:08:08;100204.94;;;-2.98;79.50
56074;BME280;41950;55.840;37.442;2023-01-26T04:10:54;100225.66;;;-2.89;79.52
56074;BME280;41950;55.840;37.442;2023-01-26T04:13:21;100163.06;;;-3.25;79.57
56074;BME280;41950;55.840;37.442;2023-01-26T04:16:07;100205.13;;;-2.93;79.42
56074;BME280;41950;55.840;37.442;2023-01-26T04:18:51;100190.06;;;-3.08;79.46
56074;BME280;41950;55.840;37.442;2023-01-26T04:21:36;100211.06;;;-2.93;79.54
56074;BME280;41950;55.840;37.442;2023-01-26T04:24:04;100219.63;;;-2.91;79.57
56074;BME280;41950;55.840;37.442;2023-01-26T04:26:39;100207.06;;;-2.88;79.56
56074;BME280;41950;55.840;37.442;2023-01-26T04:29:08;100220.09;;;-2.80;79.44
56074;BME280;41950;55.840;37.442;2023-01-26T04:31:34;100200.38;;;-2.86;79.43
56074;BME280;41950;55.840;37.442;2023-01-26T04:34:01;100185.69;;;-2.93;79.26
56074;BME280;41950;55.840;37.442;2023-01-26T04:36:26;100211.53;;;-2.82;79.21
56074;BME280;41950;55.840;37.442;2023-01-26T04:38:53;100204.84;;;-2.80;79.18
56074;BME280;41950;55.840;37.442;2023-01-26T04:41:19;100157.91;;;-3.07;79.08
56074;BME280;41950;55.840;37.442;2023-01-26T04:43:44;100205.06;;;-2.75;79.24
56074;BME280;41950;55.840;37.442;2023-01-26T04:46:10;100194.81;;;-2.77;79.00
56074;BME280;41950;55.840;37.442;2023-01-26T04:48:36;100199.59;;;-2.85;79.13
56074;BME280;41950;55.840;37.442;2023-01-26T04:51:07;100200.78;;;-2.76;78.94
56074;BME280;41950;55.840;37.442;2023-01-26T04:53:33;100170.19;;;-2.99;78.92
56074;BME280;41950;55.840;37.442;2023-01-26T04:55:59;100140.75;;;-3.13;78.85
56074;BME280;41950;55.840;37.442;2023-01-26T04:58:25;100187.00;;;-2.82;78.70
56074;BME280;41950;55.840;37.442;2023-01-26T05:00:55;100199.91;;;-2.77;78.82
56074;BME280;41950;55.840;37.442;2023-01-26T05:03:22;100120.38;;;-3.15;79.02
56074;BME280;41950;55.840;37.442;2023-01-26T05:05:49;100189.19;;;-2.71;78.80
56074;BME280;41950;55.840;37.442;2023-01-26T05:08:16;100199.53;;;-2.67;78.49
56074;BME280;41950;55.840;37.442;2023-01-26T05:10:41;100170.78;;;-2.85;78.53
56074;BME280;41950;55.840;37.442;2023-01-26T05:13:07;100196.78;;;-2.71;78.83
56074;BME280;41950;55.840;37.442;2023-01-26T05:15:34;100201.13;;;-2.69;78.80
56074;BME280;41950;55.840;37.442;2023-01-26T05:18:00;100185.69;;;-2.73;78.36
56074;BME280;41950;55.840;37.442;2023-01-26T05:20:26;100191.03;;;-2.67;78.76
56074;BME280;41950;55.840;37.442;2023-01-26T05:22:52;100192.72;;;-2.68;78.62
56074;BME280;41950;55.840;37.442;2023-01-26T05:25:17;100187.75;;;-2.65;78.37
56074;BME280;41950;55.840;37.442;2023-01-26T05:27:43;100175.66;;;-2.70;78.18
56074;BME280;41950;55.840;37.442;2023-01-26T05:30:10;100191.91;;;-2.67;78.33
56074;BME280;41950;55.840;37.442;2023-01-26T05:32:36;100175.59;;;-2.72;78.30
56074;BME280;41950;55.840;37.442;2023-01-26T05:35:03;100167.69;;;-2.78;78.22
56074;BME280;41950;55.840;37.442;2023-01-26T05:37:29;100173.69;;;-2.76;77.90
56074;BME280;41950;55.840;37.442;2023-01-26T05:39:55;100158.94;;;-2.85;77.94
56074;BME280;41950;55.840;37.442;2023-01-26T05:42:21;100193.03;;;-2.60;78.02
56074;BME280;41950;55.840;37.442;2023-01-26T05:44:47;100194.78;;;-2.59;77.87
56074;BME280;41950;55.840;37.442;2023-01-26T05:47:12;100191.03;;;-2.67;77.80
56074;BME280;41950;55.840;37.442;2023-01-26T05:49:38;100189.69;;;-2.59;77.96
56074;BME280;41950;55.840;37.442;2023-01-26T05:52:14;100203.53;;;-2.53;77.70
56074;BME280;41950;55.840;37.442;2023-01-26T05:54:40;100197.38;;;-2.58;77.56
56074;BME280;41950;55.840;37.442;2023-01-26T05:57:06;100156.41;;;-2.85;77.57
56074;BME280;41950;55.840;37.442;2023-01-26T05:59:32;100187.81;;;-2.63;77.89
56074;BME280;41950;55.840;37.442;2023-01-26T06:01:57;100188.81;;;-2.60;77.99
56074;BME280;41950;55.840;37.442;2023-01-26T06:04:24;100188.88;;;-2.58;77.67
56074;BME280;41950;55.840;37.442;2023-01-26T06:06:53;100188.94;;;-2.57;77.46
56074;BME280;41950;55.840;37.442;2023-01-26T06:09:20;100181.13;;;-2.61;77.58
56074;BME280;41950;55.840;37.442;2023-01-26T06:11:46;100138.63;;;-2.85;77.71
56074;BME280;41950;55.840;37.442;2023-01-26T06:14:12;100178.78;;;-2.57;77.43
56074;BME280;41950;55.840;37.442;2023-01-26T06:16:38;100140.69;;;-2.76;77.47
56074;BME280;41950;55.840;37.442;2023-01-26T06:19:04;100176.91;;;-2.61;77.53
56074;BME280;41950;55.840;37.442;2023-01-26T06:21:31;100154.47;;;-2.71;77.54
56074;BME280;41950;55.840;37.442;2023-01-26T06:23:58;100181.88;;;-2.64;77.88
56074;BME280;41950;55.840;37.442;2023-01-26T06:26:24;100180.47;;;-2.57;77.74
56074;BME280;41950;55.840;37.442;2023-01-26T06:28:51;100175.50;;;-2.54;77.50
56074;BME280;41950;55.840;37.442;2023-01-26T06:31:16;100163.41;;;-2.60;77.48
56074;BME280;41950;55.840;37.442;2023-01-26T06:33:42;100158.72;;;-2.51;77.36
56074;BME280;41950;55.840;37.442;2023-01-26T06:36:13;100096.19;;;-2.87;77.33
56074;BME280;41950;55.840;37.442;2023-01-26T06:38:50;100162.59;;;-2.39;77.27
56074;BME280;41950;55.840;37.442;2023-01-26T06:41:17;100164.25;;;-2.40;76.94
56074;BME280;41950;55.840;37.442;2023-01-26T06:43:45;100169.34;;;-2.40;76.88
56074;BME280;41950;55.840;37.442;2023-01-26T06:46:12;100167.56;;;-2.42;76.89
56074;BME280;41950;55.840;37.442;2023-01-26T06:48:38;100166.41;;;-2.49;77.23
56074;BME280;41950;55.840;37.442;2023-01-26T06:53:48;100165.00;;;-2.42;76.91
56074;BME280;41950;55.840;37.442;2023-01-26T06:56:16;100153.03;;;-2.45;76.78
56074;BME280;41950;55.840;37.442;2023-01-26T06:58:42;100161.84;;;-2.37;76.85
56074;BME280;41950;55.840;37.442;2023-01-26T07:01:28;100156.03;;;-2.34;76.52
56074;BME280;41950;55.840;37.442;2023-01-26T07:03:56;100141.50;;;-2.37;76.69
56074;BME280;41950;55.840;37.442;2023-01-26T07:06:22;100138.16;;;-2.36;76.60
56074;BME280;41950;55.840;37.442;2023-01-26T07:08:48;100132.22;;;-2.36;76.48
56074;BME280;41950;55.840;37.442;2023-01-26T07:11:13;100159.41;;;-2.14;76.15
56074;BME280;41950;55.840;37.442;2023-01-26T07:13:41;100157.66;;;-2.15;76.08
56074;BME280;41950;55.840;37.442;2023-01-26T07:16:11;100161.94;;;-2.14;76.18
56074;BME280;41950;55.840;37.442;2023-01-26T07:18:38;100156.91;;;-2.13;75.94
56074;BME280;41950;55.840;37.442;2023-01-26T07:21:09;100124.72;;;-2.33;75.78
56074;BME280;41950;55.840;37.442;2023-01-26T07:23:35;100151.72;;;-2.16;75.92
56074;BME280;41950;55.840;37.442;2023-01-26T07:26:01;100160.38;;;-2.11;75.88
56074;BME280;41950;55.840;37.442;2023-01-26T07:28:26;100166.56;;;-2.04;75.75
56074;BME280;41950;55.840;37.442;2023-01-26T07:31:01;100163.22;;;-2.03;75.64
56074;BME280;41950;55.840;37.442;2023-01-26T07:33:27;100156.59;;;-2.00;75.48
56074;BME280;41950;55.840;37.442;2023-01-26T07:35:54;100165.94;;;-1.99;75.60
56074;BME280;41950;55.840;37.442;2023-01-26T07:38:20;100164.28;;;-1.98;75.49
56074;BME280;41950;55.840;37.442;2023-01-26T07:40:45;100162.72;;;-1.95;75.45
56074;BME280;41950;55.840;37.442;2023-01-26T07:43:12;100168.72;;;-1.93;75.24
56074;BME280;41950;55.840;37.442;2023-01-26T07:45:44;100138.25;;;-2.13;75.35
56074;BME280;41950;55.840;37.442;2023-01-26T07:48:10;100167.06;;;-1.92;75.47
56074;BME280;41950;55.840;37.442;2023-01-26T07:50:35;100153.47;;;-1.93;75.38
56074;BME280;41950;55.840;37.442;2023-01-26T07:53:01;100139.34;;;-1.86;75.30
56074;BME280;41950;55.840;37.442;2023-01-26T07:55:27;100160.97;;;-1.75;74.78
56074;BME280;41950;55.840;37.442;2023-01-26T07:57:52;100152.25;;;-1.81;74.94
56074;BME280;41950;55.840;37.442;2023-01-26T08:00:18;100162.06;;;-1.68;74.82
56074;BME280;41950;55.840;37.442;2023-01-26T08:02:48;100130.22;;;-1.81;74.53
56074;BME280;41950;55.840;37.442;2023-01-26T08:05:14;100118.94;;;-1.88;74.86
56074;BME280;41950;55.840;37.442;2023-01-26T08:07:40;100146.28;;;-1.82;74.66
56074;BME280;41950;55.840;37.442;2023-01-26T08:10:05;100110.16;;;-1.94;74.91
56074;BME280;41950;55.840;37.442;2023-01-26T08:12:34;100144.66;;;-1.80;75.02
56074;BME280;41950;55.840;37.442;2023-01-26T08:15:00;100137.91;;;-1.79;75.08
56074;BME280;41950;55.840;37.442;2023-01-26T08:17:28;100130.16;;;-1.82;74.97
56074;BME280;41950;55.840;37.442;2023-01-26T08:19:53;100142.25;;;-1.77;75.12
56074;BME280;41950;55.840;37.442;2023-01-26T08:22:19;100131.78;;;-1.84;75.05
56074;BME280;41950;55.840;37.442;2023-01-26T08:24:44;100119.16;;;-1.81;75.13
56074;BME280;41950;55.840;37.442;2023-01-26T08:27:10;100128.72;;;-1.76;74.81
56074;BME280;41950;55.840;37.442;2023-01-26T08:29:36;100147.69;;;-1.68;74.84
56074;BME280;41950;55.840;37.442;2023-01-26T08:32:01;100121.78;;;-1.80;74.80
56074;BME280;41950;55.840;37.442;2023-01-26T08:34:27;100139.75;;;-1.75;74.94
56074;BME280;41950;55.840;37.442;2023-01-26T08:36:53;100127.72;;;-1.79;75.17
56074;BME280;41950;55.840;37.442;2023-01-26T08:39:18;100125.25;;;-1.78;74.97
56074;BME280;41950;55.840;37.442;2023-01-26T08:41:44;100141.72;;;-1.68;74.82
56074;BME280;41950;55.840;37.442;2023-01-26T08:44:10;100135.06;;;-1.65;74.95
56074;BME280;41950;55.840;37.442;2023-01-26T08:46:36;100130.25;;;-1.59;74.86
56074;BME280;41950;55.840;37.442;2023-01-26T08:49:01;100117.56;;;-1.57;74.70
56074;BME280;41950;55.840;37.442;2023-01-26T08:51:27;100115.72;;;-1.61;74.34
56074;BME280;41950;55.840;37.442;2023-01-26T08:53:53;100127.94;;;-1.52;74.65
56074;BME280;41950;55.840;37.442;2023-01-26T08:56:19;100108.97;;;-1.61;74.56
56074;BME280;41950;55.840;37.442;2023-01-26T08:58:44;100118.72;;;-1.49;74.61
56074;BME280;41950;55.840;37.442;2023-01-26T09:01:12;100099.16;;;-1.50;74.64
56074;BME280;41950;55.840;37.442;2023-01-26T09:03:38;100122.88;;;-1.29;74.30
56074;BME280;41950;55.840;37.442;2023-01-26T09:06:05;100103.28;;;-1.31;74.17
56074;BME280;41950;55.840;37.442;2023-01-26T09:08:32;100114.50;;;-1.26;74.04
56074;BME280;41950;55.840;37.442;2023-01-26T09:10:58;100097.22;;;-1.35;73.82
56074;BME280;41950;55.840;37.442;2023-01-26T09:13:24;100110.81;;;-1.34;74.00
56074;BME280;41950;55.840;37.442;2023-01-26T09:15:50;100105.66;;;-1.36;74.27
56074;BME280;41950;55.840;37.442;2023-01-26T09:18:16;100106.38;;;-1.38;74.13
56074;BME280;41950;55.840;37.442;2023-01-26T09:20:42;100103.16;;;-1.34;74.30
56074;BME280;41950;55.840;37.442;2023-01-26T09:23:08;100096.28;;;-1.37;74.38
56074;BME280;41950;55.840;37.442;2023-01-26T09:25:36;100108.38;;;-1.31;74.19
56074;BME280;41950;55.840;37.442;2023-01-26T09:28:02;100101.47;;;-1.34;74.28
56074;BME280;41950;55.840;37.442;2023-01-26T09:30:28;100107.38;;;-1.35;74.30
56074;BME280;41950;55.840;37.442;2023-01-26T09:33:02;100114.16;;;-1.35;74.16
56074;BME280;41950;55.840;37.442;2023-01-26T09:35:29;100093.66;;;-1.38;74.44
56074;BME280;41950;55.840;37.442;2023-01-26T09:37:55;100106.84;;;-1.26;74.20
56074;BME280;41950;55.840;37.442;2023-01-26T09:40:55;100101.00;;;-1.23;74.19
56074;BME280;41950;55.840;37.442;2023-01-26T09:43:35;100105.97;;;-1.27;74.41
56074;BME280;41950;55.840;37.442;2023-01-26T09:46:22;100113.69;;;-1.25;74.16
56074;BME280;41950;55.840;37.442;2023-01-26T09:48:58;100093.91;;;-1.32;74.44
56074;BME280;41950;55.840;37.442;2023-01-26T09:51:48;100106.75;;;-1.29;74.29
56074;BME280;41950;55.840;37.442;2023-01-26T09:56:56;100103.03;;;-1.37;74.64
56074;BME280;41950;55.840;37.442;2023-01-26T10:05:21;100093.91;;;-1.32;75.01
56074;BME280;41950;55.840;37.442;2023-01-26T10:07:49;100099.91;;;-1.30;74.99
56074;BME280;41950;55.840;37.442;2023-01-26T10:10:24;100097.47;;;-1.27;74.83
56074;BME280;41950;55.840;37.442;2023-01-26T10:12:52;100070.75;;;-1.38;74.85
56074;BME280;41950;55.840;37.442;2023-01-26T10:15:31;100088.44;;;-1.41;74.92
56074;BME280;41950;55.840;37.442;2023-01-26T10:18:05;100084.22;;;-1.41;75.19
56074;BME280;41950;55.840;37.442;2023-01-26T10:20:42;100088.44;;;-1.41;75.23
56074;BME280;41950;55.840;37.442;2023-01-26T10:23:16;100082.66;;;-1.37;75.35
56074;BME280;41950;55.840;37.442;2023-01-26T10:25:44;100065.44;;;-1.44;75.40
56074;BME280;41950;55.840;37.442;2023-01-26T10:28:30;100068.91;;;-1.42;75.36
56074;BME280;41950;55.840;37.442;2023-01-26T10:31:01;100090.28;;;-1.37;75.41
56074;BME280;41950;55.840;37.442;2023-01-26T10:36:00;100076.19;;;-1.29;75.42
56074;BME280;41950;55.840;37.442;2023-01-26T10:40:52;100060.03;;;-1.30;75.59
56074;BME280;41950;55.840;37.442;2023-01-26T10:43:18;100044.41;;;-1.39;75.72
56074;BME280;41950;55.840;37.442;2023-01-26T10:45:45;100068.00;;;-1.20;75.93
56074;BME280;41950;55.840;37.442;2023-01-26T10:48:19;100053.59;;;-1.20;75.81
56074;BME280;41950;55.840;37.442;2023-01-26T10:50:49;100056.91;;;-1.22;76.09
56074;BME280;41950;55.840;37.442;2023-01-26T10:53:25;100056.13;;;-1.20;76.19
56074;BME280;41950;55.840;37.442;2023-01-26T10:56:08;100042.69;;;-1.16;76.22
56074;BME280;41950;55.840;37.442;2023-01-26T10:58:46;100050.44;;;-1.13;76.26
56074;BME280;41950;55.840;37.442;2023-01-26T11:01:14;100040.19;;;-1.14;76.35
56074;BME280;41950;55.840;37.442;2023-01-26T11:06:27;100026.06;;;-1.30;76.78
56074;BME280;41950;55.840;37.442;2023-01-26T11:08:53;100037.78;;;-1.35;77.27
56074;BME280;41950;55.840;37.442;2023-01-26T11:11:24;100027.00;;;-1.28;77.33
56074;BME280;41950;55.840;37.442;2023-01-26T11:18:01;100026.78;;;-1.34;77.41
56074;BME280;41950;55.840;37.442;2023-01-26T11:21:07;100030.09;;;-1.37;77.59
56074;BME280;41950;55.840;37.442;2023-01-26T11:24:25;100020.38;;;-1.47;78.19
56074;BME280;41950;55.840;37.442;2023-01-26T11:27:18;100025.47;;;-1.47;78.77
56074;BME280;41950;55.840;37.442;2023-01-26T11:30:18;100015.28;;;-1.47;79.16
56074;BME280;41950;55.840;37.442;2023-01-26T11:44:19;100022.53;;;-1.58;80.97
56074;BME280;41950;55.840;37.442;2023-01-26T11:47:07;100016.41;;;-1.63;81.75
56074;BME280;41950;55.840;37.442;2023-01-26T12:00:43;100019.03;;;-1.61;82.93
56074;BME280;41950;55.840;37.442;2023-01-26T12:03:37;100010.56;;;-1.60;83.04
56074;BME280;41950;55.840;37.442;2023-01-26T12:06:06;100014.84;;;-1.59;82.97
56074;BME280;41950;55.840;37.442;2023-01-26T12:08:48;100010.69;;;-1.57;82.76
56074;BME280;41950;55.840;37.442;2023-01-26T12:11:26;100018.41;;;-1.54;82.82
56074;BME280;41950;55.840;37.442;2023-01-26T12:16:46;100011.31;;;-1.63;82.90
56074;BME280;41950;55.840;37.442;2023-01-26T12:19:40;100019.22;;;-1.55;83.02
56074;BME280;41950;55.840;37.442;2023-01-26T12:43:14;100015.47;;;-1.65;84.01
56074;BME280;41950;55.840;37.442;2023-01-26T12:45:44;100009.41;;;-1.68;84.01
56074;BME280;41950;55.840;37.442;2023-01-26T12:48:40;100008.03;;;-1.60;83.79
56074;BME280;41950;55.840;37.442;2023-01-26T12:51:31;99997.53;;;-1.68;83.65
56074;BME280;41950;55.840;37.442;2023-01-26T12:54:03;100015.81;;;-1.56;83.30
56074;BME280;41950;55.840;37.442;2023-01-26T12:56:39;100013.28;;;-1.56;83.10
56074;BME280;41950;55.840;37.442;2023-01-26T12:59:20;99987.63;;;-1.62;82.96
56074;BME280;41950;55.840;37.442;2023-01-26T13:01:49;99973.66;;;-1.71;82.50
56074;BME280;41950;55.840;37.442;2023-01-26T13:04:15;99996.28;;;-1.57;82.47
56074;BME280;41950;55.840;37.442;2023-01-26T13:06:41;99994.25;;;-1.65;82.41
56074;BME280;41950;55.840;37.442;2023-01-26T13:09:26;100009.97;;;-1.53;82.14
56074;BME280;41950;55.840;37.442;2023-01-26T13:11:53;100009.09;;;-1.53;82.05
56074;BME280;41950;55.840;37.442;2023-01-26T13:24:57;100006.53;;;-1.31;81.38
56074;BME280;41950;55.840;37.442;2023-01-26T13:27:42;100021.91;;;-1.28;81.09
56074;BME280;41950;55.840;37.442;2023-01-26T13:35:16;100016.56;;;-1.36;81.34
56074;BME280;41950;55.840;37.442;2023-01-26T13:40:25;100010.28;;;-1.44;81.70
56074;BME280;41950;55.840;37.442;2023-01-26T13:46:21;100019.81;;;-1.38;81.99
56074;BME280;41950;55.840;37.442;2023-01-26T13:48:53;100017.97;;;-1.42;82.14
56074;BME280;41950;55.840;37.442;2023-01-26T13:51:25;100018.75;;;-1.45;82.34
56074;BME280;41950;55.840;37.442;2023-01-26T13:54:04;100021.44;;;-1.40;82.49
56074;BME280;41950;55.840;37.442;2023-01-26T13:56:36;100017.22;;;-1.40;82.69
56074;BME280;41950;55.840;37.442;2023-01-26T13:59:07;100016.41;;;-1.39;82.49
56074;BME280;41950;55.840;37.442;2023-01-26T14:01:35;100012.06;;;-1.41;82.59
56074;BME280;41950;55.840;37.442;2023-01-26T14:04:06;99998.13;;;-1.52;82.83
56074;BME280;41950;55.840;37.442;2023-01-26T14:06:34;100013.91;;;-1.37;82.91
56074;BME280;41950;55.840;37.442;2023-01-26T14:09:03;100007.84;;;-1.41;82.72
56074;BME280;41950;55.840;37.442;2023-01-26T14:11:32;100011.47;;;-1.36;82.58
56074;BME280;41950;55.840;37.442;2023-01-26T14:13:59;100009.44;;;-1.44;82.47
56074;BME280;41950;55.840;37.442;2023-01-26T14:16:31;100020.25;;;-1.50;82.67
56074;BME280;41950;55.840;37.442;2023-01-26T14:22:00;100010.94;;;-1.49;82.57
56074;BME280;41950;55.840;37.442;2023-01-26T14:24:31;100008.34;;;-1.51;82.69
56074;BME280;41950;55.840;37.442;2023-01-26T14:26:57;100009.16;;;-1.52;82.74
56074;BME280;41950;55.840;37.442;2023-01-26T14:29:25;100009.28;;;-1.49;82.74
56074;BME280;41950;55.840;37.442;2023-01-26T14:31:54;100010.34;;;-1.42;82.60